createdAt,value
2018-09-19T00:01:42.356Z,8.43
2018-09-19T00:04:10.485Z,8.17
2018-09-19T00:06:38.610Z,11.43
2018-09-19T00:09:08.934Z,9.80
2018-09-19T00:11:37.083Z,10.63
2018-09-19T00:14:05.213Z,10.93
2018-09-19T00:16:33.557Z,9.70
2018-09-19T00:19:01.676Z,7.97
2018-09-19T00:21:29.895Z,9.83
2018-09-19T00:23:58.131Z,10.27
2018-09-19T00:26:26.327Z,9.27
2018-09-19T00:28:54.556Z,10.93
2018-09-19T00:31:22.747Z,9.40
2018-09-19T00:33:50.907Z,8.73
2018-09-19T00:36:19.054Z,10.77
2018-09-19T00:38:47.189Z,10.80
2018-09-19T00:41:15.321Z,9.27
2018-09-19T00:43:43.433Z,11.77
2018-09-19T00:46:11.582Z,9.03
2018-09-19T00:48:39.733Z,10.03
2018-09-19T00:51:08.113Z,8.47
2018-09-19T00:53:36.237Z,9.13
2018-09-19T00:56:04.412Z,10.50
2018-09-19T00:58:32.537Z,8.43
2018-09-19T01:01:00.662Z,8.40
2018-09-19T01:03:28.593Z,12.57
2018-09-19T01:05:56.734Z,9.20
2018-09-19T01:08:24.884Z,8.37
2018-09-19T01:10:53.030Z,9.50
2018-09-19T01:13:21.170Z,8.90
2018-09-19T01:15:49.602Z,8.50
2018-09-19T01:18:17.820Z,8.97
2018-09-19T01:20:45.926Z,10.30
2018-09-19T01:23:14.122Z,9.57
2018-09-19T01:25:42.258Z,10.80
2018-09-19T01:28:10.437Z,8.97
2018-09-19T01:30:38.576Z,9.27
2018-09-19T01:33:06.738Z,9.43
2018-09-19T01:35:34.657Z,9.07
2018-09-19T01:38:02.810Z,11.47
2018-09-19T01:40:30.952Z,11.20
2018-09-19T01:42:59.109Z,9.10
2018-09-19T01:45:27.262Z,9.30
2018-09-19T01:47:55.435Z,12.77
2018-09-19T01:50:23.604Z,8.90
2018-09-19T01:52:51.762Z,9.50
2018-09-19T01:55:19.918Z,9.27
2018-09-19T01:57:48.154Z,9.63
2018-09-19T02:00:16.287Z,9.27
2018-09-19T02:02:44.445Z,9.50
2018-09-19T02:05:12.635Z,10.37
2018-09-19T02:07:40.793Z,9.73
2018-09-19T02:10:08.913Z,9.70
2018-09-19T02:12:37.058Z,9.33
2018-09-19T02:15:05.187Z,9.20
2018-09-19T02:17:33.348Z,8.50
2018-09-19T02:20:01.474Z,9.07
2018-09-19T02:22:29.601Z,9.87
2018-09-19T02:24:57.730Z,12.27
2018-09-19T02:27:25.883Z,11.63
2018-09-19T02:29:54.021Z,11.07
2018-09-19T02:32:22.174Z,10.53
2018-09-19T02:34:50.293Z,10.27
2018-09-19T02:37:18.457Z,10.33
2018-09-19T02:39:46.577Z,11.37
2018-09-19T02:42:14.727Z,10.23
2018-09-19T02:44:42.879Z,12.17
2018-09-19T02:47:11.056Z,11.30
2018-09-19T02:49:39.130Z,11.23
2018-09-19T02:52:07.272Z,10.37
2018-09-19T02:54:35.423Z,13.10
2018-09-19T02:57:03.543Z,10.07
2018-09-19T02:59:31.696Z,14.03
2018-09-19T03:01:59.839Z,9.87
2018-09-19T03:04:27.994Z,10.63
2018-09-19T03:06:56.138Z,10.90
2018-09-19T03:09:24.274Z,9.93
2018-09-19T03:11:52.403Z,10.37
2018-09-19T03:14:20.548Z,10.33
2018-09-19T03:16:48.677Z,14.33
2018-09-19T03:19:16.880Z,15.90
2018-09-19T03:21:45.021Z,10.73
2018-09-19T03:24:13.158Z,13.10
2018-09-19T03:26:41.321Z,10.13
2018-09-19T03:29:09.469Z,10.57
2018-09-19T03:31:37.609Z,10.70
2018-09-19T03:34:05.860Z,12.53
2018-09-19T03:36:34.012Z,10.73
2018-09-19T03:39:02.165Z,9.13
2018-09-19T03:41:30.306Z,12.67
2018-09-19T03:43:58.453Z,10.97
2018-09-19T03:46:26.579Z,10.40
2018-09-19T03:48:54.713Z,12.23
2018-09-19T03:51:22.859Z,9.80
2018-09-19T03:53:51.003Z,11.23
2018-09-19T03:56:18.908Z,10.70
2018-09-19T03:58:47.066Z,12.13
2018-09-19T04:01:15.314Z,10.37
2018-09-19T04:03:43.473Z,10.00
2018-09-19T04:06:11.593Z,11.93
2018-09-19T04:08:39.791Z,13.10
2018-09-19T04:11:07.938Z,10.87
2018-09-19T04:13:36.183Z,12.17
2018-09-19T04:16:04.410Z,10.67
2018-09-19T04:18:32.352Z,10.00
2018-09-19T04:21:00.245Z,12.20
2018-09-19T04:23:28.466Z,10.53
2018-09-19T04:25:56.693Z,11.23
2018-09-19T04:28:24.830Z,9.90
2018-09-19T04:30:52.979Z,9.83
2018-09-19T04:33:21.115Z,9.67
2018-09-19T04:35:49.254Z,11.07
2018-09-19T04:38:17.425Z,9.63
2018-09-19T04:40:45.606Z,10.70
2018-09-19T04:43:13.734Z,8.93
2018-09-19T04:45:41.717Z,10.47
2018-09-19T04:48:09.924Z,9.23
2018-09-19T04:50:38.107Z,9.83
2018-09-19T04:53:06.438Z,10.20
2018-09-19T04:55:34.363Z,10.47
2018-09-19T04:58:02.583Z,10.13
2018-09-19T05:00:30.503Z,9.23
2018-09-19T05:02:58.672Z,9.53
2018-09-19T05:05:26.581Z,9.80
2018-09-19T05:07:54.752Z,9.97
2018-09-19T05:10:22.912Z,9.37
2018-09-19T05:12:51.033Z,9.70
2018-09-19T05:15:18.953Z,11.20
2018-09-19T05:17:47.101Z,13.77
2018-09-19T05:20:15.273Z,9.83
2018-09-19T05:22:43.411Z,9.57
2018-09-19T05:25:11.590Z,10.77
2018-09-19T05:27:39.729Z,9.37
2018-09-19T05:30:07.895Z,10.30
2018-09-19T05:32:36.036Z,12.47
2018-09-19T05:35:03.969Z,10.43
2018-09-19T05:37:32.111Z,8.93
2018-09-19T05:40:00.302Z,9.43
2018-09-19T05:42:28.464Z,11.43
2018-09-19T05:44:56.643Z,10.53
2018-09-19T05:47:24.770Z,11.37
2018-09-19T05:49:53.236Z,8.73
2018-09-19T05:52:25.962Z,10.03
2018-09-19T05:54:55.483Z,10.63
2018-09-19T05:57:23.637Z,11.70
2018-09-19T05:59:51.795Z,10.57
2018-09-19T06:02:19.949Z,9.43
2018-09-19T06:04:48.306Z,9.17
2018-09-19T06:07:16.477Z,12.43
2018-09-19T06:09:44.638Z,14.97
2018-09-19T06:12:12.587Z,12.73
2018-09-19T06:14:40.763Z,13.80
2018-09-19T06:17:08.919Z,11.77
2018-09-19T06:19:37.090Z,9.93
2018-09-19T06:22:05.262Z,10.77
2018-09-19T06:24:33.446Z,10.97
2018-09-19T06:27:01.638Z,12.13
2018-09-19T06:29:29.761Z,11.23
2018-09-19T06:31:57.943Z,11.37
2018-09-19T06:34:26.197Z,10.00
2018-09-19T06:36:54.356Z,7.93
2018-09-19T06:39:22.690Z,9.70
2018-09-19T06:41:50.843Z,7.93
2018-09-19T06:44:19.016Z,10.20
2018-09-19T06:46:47.192Z,6.90
2018-09-19T06:49:15.369Z,8.27
2018-09-19T06:51:43.505Z,9.00
2018-09-19T06:54:11.688Z,6.60
2018-09-19T06:56:39.838Z,7.73
2018-09-19T06:59:08.025Z,8.23
2018-09-19T07:01:36.211Z,7.97
2018-09-19T07:04:04.361Z,9.23
2018-09-19T07:06:32.594Z,8.40
2018-09-19T07:09:00.789Z,10.63
2018-09-19T07:11:28.942Z,7.40
2018-09-19T07:13:57.125Z,7.47
2018-09-19T07:16:25.293Z,7.47
2018-09-19T07:18:53.548Z,14.27
2018-09-19T07:21:21.635Z,7.73
2018-09-19T07:23:49.806Z,10.10
2018-09-19T07:26:17.922Z,7.40
2018-09-19T07:28:46.461Z,9.13
2018-09-19T07:31:14.672Z,7.77
2018-09-19T07:33:42.758Z,7.93
2018-09-19T07:36:10.949Z,10.77
2018-09-19T07:38:39.143Z,7.87
2018-09-19T07:41:07.302Z,8.37
2018-09-19T07:43:35.474Z,6.43
2018-09-19T07:46:03.694Z,8.10
2018-09-19T07:48:31.841Z,9.20
2018-09-19T07:51:00.169Z,6.23
2018-09-19T07:53:34.497Z,7.83
2018-09-19T07:56:03.121Z,7.57
2018-09-19T07:58:31.869Z,8.17
2018-09-19T08:01:00.274Z,10.33
2018-09-19T08:03:28.466Z,7.83
2018-09-19T08:05:56.630Z,7.20
2018-09-19T08:08:24.801Z,6.63
2018-09-19T08:10:53.466Z,6.73
2018-09-19T08:13:21.610Z,7.50
2018-09-19T08:15:49.822Z,8.33
2018-09-19T08:18:17.973Z,7.37
2018-09-19T08:20:46.126Z,6.90
2018-09-19T08:23:14.282Z,6.03
2018-09-19T08:25:42.445Z,7.43
2018-09-19T08:28:10.593Z,7.47
2018-09-19T08:30:38.793Z,8.43
2018-09-19T08:33:06.955Z,11.53
2018-09-19T08:35:35.157Z,5.57
2018-09-19T08:38:03.310Z,5.87
2018-09-19T08:40:31.521Z,8.77
2018-09-19T08:42:59.681Z,5.60
2018-09-19T08:45:27.931Z,5.57
2018-09-19T08:47:56.059Z,7.63
2018-09-19T08:50:24.256Z,8.17
2018-09-19T08:52:52.403Z,5.27
2018-09-19T08:55:20.540Z,5.53
2018-09-19T08:57:48.687Z,9.90
2018-09-19T09:00:16.871Z,6.10
2018-09-19T09:02:45.033Z,7.07
2018-09-19T09:05:13.225Z,8.53
2018-09-19T09:07:41.338Z,7.03
2018-09-19T09:10:09.501Z,7.03
2018-09-19T09:16:01.231Z,5.27
2018-09-19T09:18:29.401Z,5.90
2018-09-19T09:20:57.640Z,6.83
2018-09-19T09:23:25.783Z,5.03
2018-09-19T09:25:53.941Z,5.33
2018-09-19T09:28:21.920Z,8.70
2018-09-19T09:30:50.095Z,4.43
2018-09-19T09:33:18.269Z,4.30
2018-09-19T09:35:46.214Z,4.30
2018-09-19T09:38:14.159Z,6.40
2018-09-19T09:40:42.091Z,6.23
2018-09-19T09:43:10.016Z,8.33
2018-09-19T09:45:38.183Z,5.60
2018-09-19T09:48:06.105Z,5.03
2018-09-19T09:50:34.027Z,4.70
2018-09-19T09:53:02.170Z,4.43
2018-09-19T09:55:30.094Z,6.43
2018-09-19T09:57:58.348Z,4.70
2018-09-19T10:00:31.942Z,7.63
2018-09-19T10:03:00.138Z,5.00
2018-09-19T10:05:28.306Z,4.93
2018-09-19T10:07:56.274Z,4.90
2018-09-19T10:10:24.515Z,7.73
2018-09-19T10:12:52.454Z,8.57
2018-09-19T10:15:20.366Z,6.10
2018-09-19T10:17:48.771Z,5.70
2018-09-19T10:20:16.921Z,5.50
2018-09-19T10:22:45.103Z,5.67
2018-09-19T10:25:13.489Z,4.60
2018-09-19T10:27:41.406Z,7.93
2018-09-19T10:30:09.579Z,9.27
2018-09-19T10:32:37.782Z,6.90
2018-09-19T10:35:05.959Z,4.53
2018-09-19T10:37:33.871Z,4.27
2018-09-19T10:40:02.026Z,4.87
2018-09-19T10:42:29.994Z,4.97
2018-09-19T10:44:57.938Z,3.87
2018-09-19T10:47:26.108Z,4.33
2018-09-19T10:49:54.327Z,5.67
2018-09-19T10:52:22.492Z,4.80
2018-09-19T10:54:50.654Z,6.13
2018-09-19T10:57:18.851Z,4.30
2018-09-19T10:59:47.030Z,7.47
2018-09-19T11:02:15.214Z,3.90
2018-09-19T11:04:43.438Z,4.13
2018-09-19T11:07:11.609Z,4.10
2018-09-19T11:09:39.782Z,4.60
2018-09-19T11:12:08.010Z,6.30
2018-09-19T11:14:35.940Z,16.17
2018-09-19T11:17:04.127Z,3.60
2018-09-19T11:19:32.034Z,4.17
2018-09-19T11:22:00.194Z,5.10
2018-09-19T11:24:28.399Z,3.97
2018-09-19T11:26:56.609Z,4.10
2018-09-19T11:29:24.802Z,5.33
2018-09-19T11:31:52.735Z,4.83
2018-09-19T11:34:20.915Z,3.80
2018-09-19T11:36:48.930Z,4.37
2018-09-19T11:39:17.079Z,3.67
2018-09-19T11:41:45.263Z,4.23
2018-09-19T11:44:13.440Z,3.77
2018-09-19T11:46:41.600Z,5.13
2018-09-19T11:49:09.791Z,4.33
2018-09-19T11:51:37.962Z,6.60
2018-09-19T11:54:06.074Z,4.00
2018-09-19T11:56:34.246Z,4.30
2018-09-19T11:59:02.410Z,4.37
2018-09-19T12:01:30.333Z,4.83
2018-09-19T12:03:58.241Z,4.73
2018-09-19T12:06:26.406Z,4.63
2018-09-19T12:08:54.568Z,7.17
2018-09-19T12:11:22.742Z,5.73
2018-09-19T12:13:50.930Z,4.87
2018-09-19T12:16:19.066Z,4.53
2018-09-19T12:18:47.239Z,4.57
2018-09-19T12:21:15.399Z,5.70
2018-09-19T12:23:43.655Z,4.73
2018-09-19T12:26:11.800Z,5.57
2018-09-19T12:28:39.943Z,4.43
2018-09-19T12:31:08.184Z,7.93
2018-09-19T12:33:36.343Z,5.90
2018-09-19T12:36:05.895Z,5.57
2018-09-19T12:38:34.136Z,6.40
2018-09-19T12:41:02.296Z,7.03
2018-09-19T12:43:30.459Z,5.43
2018-09-19T12:45:58.614Z,8.13
2018-09-19T12:48:26.767Z,8.63
2018-09-19T12:50:54.933Z,7.50
2018-09-19T12:53:24.807Z,4.67
2018-09-19T12:55:53.737Z,4.00
2018-09-19T12:58:21.931Z,6.23
2018-09-19T13:00:50.229Z,5.20
2018-09-19T13:03:18.403Z,7.33
2018-09-19T13:05:46.600Z,5.23
2018-09-19T13:08:14.771Z,8.30
2018-09-19T13:10:42.713Z,4.40
2018-09-19T13:13:10.906Z,4.50
2018-09-19T13:15:39.071Z,4.17
2018-09-19T13:18:06.990Z,4.03
2018-09-19T13:20:34.950Z,4.47
2018-09-19T13:23:03.097Z,8.67
2018-09-19T13:25:31.259Z,5.43
2018-09-19T13:27:59.166Z,6.73
2018-09-19T13:30:27.342Z,4.93
2018-09-19T13:32:55.502Z,4.80
2018-09-19T13:35:23.735Z,7.27
2018-09-19T13:37:52.002Z,5.93
2018-09-19T13:40:20.190Z,7.33
2018-09-19T13:42:48.358Z,5.43
2018-09-19T13:45:16.543Z,9.17
2018-09-19T13:47:44.764Z,7.87
2018-09-19T13:50:25.209Z,6.87
2018-09-19T13:52:53.367Z,4.50
2018-09-19T13:55:21.574Z,5.60
2018-09-19T13:57:49.751Z,5.73
2018-09-19T14:00:17.891Z,5.10
2018-09-19T14:02:46.058Z,6.10
2018-09-19T14:05:14.248Z,5.07
2018-09-19T14:07:42.406Z,6.50
2018-09-19T14:10:10.577Z,5.07
2018-09-19T14:12:38.751Z,6.97
2018-09-19T14:15:06.931Z,7.13
2018-09-19T14:17:35.197Z,5.20
2018-09-19T14:20:03.371Z,4.77
2018-09-19T14:22:31.520Z,4.80
2018-09-19T14:24:59.682Z,4.67
2018-09-19T14:27:27.843Z,6.67
2018-09-19T14:29:56.034Z,5.37
2018-09-19T14:32:24.210Z,5.03
2018-09-19T14:34:52.366Z,5.33
2018-09-19T14:37:20.538Z,8.50
2018-09-19T14:39:48.964Z,4.73
2018-09-19T14:42:17.130Z,5.43
2018-09-19T14:44:45.281Z,8.13
2018-09-19T14:47:13.429Z,5.00
2018-09-19T14:49:41.586Z,5.00
2018-09-19T14:52:09.764Z,9.93
2018-09-19T14:54:37.963Z,10.90
2018-09-19T14:57:05.862Z,4.93
2018-09-19T14:59:33.815Z,6.43
2018-09-19T15:02:01.740Z,5.67
2018-09-19T15:04:30.041Z,5.30
2018-09-19T15:06:58.201Z,6.77
2018-09-19T15:09:26.135Z,5.30
2018-09-19T15:11:54.119Z,4.83
2018-09-19T15:14:22.279Z,6.03
2018-09-19T15:16:50.464Z,5.43
2018-09-19T15:19:18.685Z,8.50
2018-09-19T15:21:46.610Z,6.43
2018-09-19T15:24:14.595Z,6.20
2018-09-19T15:26:42.485Z,5.83
2018-09-19T15:29:10.397Z,5.17
2018-09-19T15:31:38.330Z,5.87
2018-09-19T15:36:41.064Z,7.67
2018-09-19T15:39:09.609Z,10.87
2018-09-19T15:41:37.559Z,6.20
2018-09-19T15:44:05.696Z,7.97
2018-09-19T15:46:33.851Z,5.47
2018-09-19T15:49:01.755Z,5.47
2018-09-19T15:51:29.894Z,6.13
2018-09-19T15:53:58.058Z,6.70
2018-09-19T15:56:26.213Z,4.70
2018-09-19T15:58:54.448Z,5.37
2018-09-19T16:01:22.582Z,7.10
2018-09-19T16:03:50.426Z,5.20
2018-09-19T16:06:18.371Z,5.73
2018-09-19T16:08:46.347Z,6.17
2018-09-19T16:11:14.570Z,6.97
2018-09-19T16:13:42.783Z,7.50
2018-09-19T16:16:10.708Z,6.43
2018-09-19T16:18:38.633Z,5.73
2018-09-19T16:21:06.832Z,6.30
2018-09-19T16:23:34.700Z,8.73
2018-09-19T16:26:02.894Z,7.07
2018-09-19T16:28:31.094Z,6.13
2018-09-19T16:30:59.265Z,7.10
2018-09-19T16:33:27.486Z,7.60
2018-09-19T16:35:55.424Z,6.17
2018-09-19T16:38:23.607Z,8.10
2018-09-19T16:40:51.806Z,4.83
2018-09-19T16:43:20.007Z,5.40
2018-09-19T16:45:48.285Z,5.07
2018-09-19T16:48:16.386Z,6.43
2018-09-19T16:50:44.321Z,5.03
2018-09-19T16:53:12.507Z,7.73
2018-09-19T16:55:40.435Z,6.13
2018-09-19T16:58:08.358Z,9.27
2018-09-19T17:00:36.285Z,5.73
2018-09-19T17:03:04.494Z,5.07
2018-09-19T17:05:32.775Z,5.60
2018-09-19T17:08:00.976Z,6.93
2018-09-19T17:10:29.177Z,9.63
2018-09-19T17:12:57.348Z,4.93
2018-09-19T17:15:25.312Z,7.00
2018-09-19T17:17:53.210Z,5.00
2018-09-19T17:20:21.129Z,10.65
2018-09-19T17:22:49.359Z,6.47
2018-09-19T17:25:17.281Z,5.23
2018-09-19T17:27:45.444Z,5.30
2018-09-19T17:30:13.601Z,7.57
2018-09-19T17:32:41.775Z,5.47
2018-09-19T17:35:09.995Z,30.50
2018-09-19T17:37:37.922Z,19.23
2018-09-19T17:40:05.928Z,12.33
2018-09-19T17:42:33.861Z,12.83
2018-09-19T17:45:01.855Z,7.67
2018-09-19T17:47:30.194Z,9.03
2018-09-19T17:49:58.528Z,8.93
2018-09-19T17:52:26.545Z,8.00
2018-09-19T17:54:54.710Z,7.83
2018-09-19T17:57:22.630Z,11.03
2018-09-19T17:59:50.654Z,6.20
2018-09-19T18:02:18.862Z,7.80
2018-09-19T18:04:47.026Z,7.17
2018-09-19T18:07:15.195Z,5.87
2018-09-19T18:09:43.360Z,5.83
2018-09-19T18:12:11.526Z,5.60
2018-09-19T18:14:39.680Z,7.13
2018-09-19T18:17:07.835Z,9.20
2018-09-19T18:19:36.021Z,7.77
2018-09-19T18:22:04.201Z,7.60
2018-09-19T18:24:32.380Z,8.33
2018-09-19T18:27:00.356Z,6.80
2018-09-19T18:29:28.341Z,6.43
2018-09-19T18:31:56.290Z,10.40
2018-09-19T18:34:24.451Z,13.33
2018-09-19T18:36:52.365Z,7.40
2018-09-19T18:39:20.310Z,7.93
2018-09-19T18:41:48.226Z,8.27
2018-09-19T18:44:16.142Z,6.93
2018-09-19T18:46:44.666Z,7.10
2018-09-19T18:49:13.044Z,7.90
2018-09-19T18:51:41.013Z,11.40
2018-09-19T18:54:08.929Z,10.60
2018-09-19T18:56:37.375Z,10.47
2018-09-19T18:59:05.342Z,10.73
2018-09-19T19:01:33.571Z,7.23
2018-09-19T19:04:01.707Z,12.60
2018-09-19T19:06:29.853Z,9.37
2018-09-19T19:08:58.007Z,9.10
2018-09-19T19:11:26.211Z,9.70
2018-09-19T19:13:54.414Z,8.37
2018-09-19T19:16:22.635Z,8.57
2018-09-19T19:18:50.903Z,10.57
2018-09-19T19:21:18.999Z,7.90
2018-09-19T19:23:46.964Z,9.83
2018-09-19T19:26:14.919Z,9.93
2018-09-19T19:28:42.894Z,9.57
2018-09-19T19:31:10.830Z,9.30
2018-09-19T19:33:38.920Z,14.13
2018-09-19T19:36:07.082Z,8.73
2018-09-19T19:38:35.256Z,16.37
2018-09-19T19:41:03.430Z,9.00
2018-09-19T19:43:31.601Z,9.40
2018-09-19T19:45:59.752Z,9.80
2018-09-19T19:48:27.669Z,7.80
2018-09-19T19:50:55.585Z,14.77
2018-09-19T19:53:23.566Z,10.13
2018-09-19T19:55:51.429Z,9.97
2018-09-19T19:58:19.354Z,12.73
2018-09-19T20:00:47.538Z,11.00
2018-09-19T20:03:15.502Z,10.33
2018-09-19T20:05:43.706Z,8.40
2018-09-19T20:08:11.858Z,9.67
2018-09-19T20:10:39.842Z,10.50
2018-09-19T20:13:08.410Z,8.53
2018-09-19T20:15:36.608Z,8.10
2018-09-19T20:18:04.861Z,8.70
2018-09-19T20:20:33.006Z,9.43
2018-09-19T20:23:01.165Z,11.47
2018-09-19T20:25:29.419Z,9.13
2018-09-19T20:27:57.603Z,9.10
2018-09-19T20:30:25.515Z,8.43
2018-09-19T20:32:53.721Z,9.30
2018-09-19T20:35:22.055Z,9.03
2018-09-19T20:37:50.225Z,11.57
2018-09-19T20:40:18.400Z,8.73
2018-09-19T20:42:46.568Z,8.53
2018-09-19T20:45:14.481Z,11.07
2018-09-19T20:47:42.668Z,10.33
2018-09-19T20:50:10.851Z,8.97
2018-09-19T20:52:38.774Z,8.73
2018-09-19T20:55:06.934Z,12.03
2018-09-19T20:57:35.090Z,11.10
2018-09-19T21:00:03.331Z,8.70
2018-09-19T21:02:32.078Z,9.73
2018-09-19T21:05:00.251Z,10.03
2018-09-19T21:07:28.414Z,9.73
2018-09-19T21:09:56.564Z,9.50
2018-09-19T21:12:24.717Z,12.23
2018-09-19T21:14:52.640Z,13.17
2018-09-19T21:17:20.786Z,9.73
2018-09-19T21:19:48.741Z,9.47
2018-09-19T21:22:17.012Z,11.40
2018-09-19T21:24:45.065Z,9.27
2018-09-19T21:27:13.218Z,8.87
2018-09-19T21:29:41.157Z,9.47
2018-09-19T21:32:09.336Z,9.30
2018-09-19T21:34:37.841Z,9.87
2018-09-19T21:37:05.974Z,10.80
2018-09-19T21:39:34.161Z,9.13
2018-09-19T21:42:02.342Z,9.73
2018-09-19T21:44:30.507Z,11.33
2018-09-19T21:46:58.444Z,10.50
2018-09-19T21:49:26.623Z,10.23
2018-09-19T21:51:54.879Z,11.40
2018-09-19T21:54:23.427Z,11.97
2018-09-19T21:56:51.489Z,12.33
2018-09-19T21:59:19.725Z,10.90
2018-09-19T22:01:52.131Z,11.37
2018-09-19T22:04:20.085Z,9.20
2018-09-19T22:06:48.252Z,10.50
2018-09-19T22:09:16.188Z,11.67
2018-09-19T22:11:44.351Z,10.93
2018-09-19T22:14:12.549Z,10.00
2018-09-19T22:16:40.698Z,10.90
2018-09-19T22:19:08.635Z,12.87
2018-09-19T22:21:36.823Z,11.47
2018-09-19T22:24:05.014Z,10.23
2018-09-19T22:26:33.034Z,16.00
2018-09-19T22:29:00.980Z,10.77
2018-09-19T22:31:29.164Z,11.03
2018-09-19T22:33:57.123Z,10.90
2018-09-19T22:36:25.290Z,11.43
2018-09-19T22:38:53.476Z,11.17
2018-09-19T22:41:21.740Z,13.53
2018-09-19T22:43:50.303Z,14.63
2018-09-19T22:46:18.344Z,14.70
2018-09-19T22:48:46.890Z,11.83
2018-09-19T22:51:14.871Z,12.80
2018-09-19T22:53:42.805Z,11.13
2018-09-19T22:56:11.010Z,10.40
2018-09-19T22:58:39.209Z,10.97
2018-09-19T23:01:07.154Z,12.10
2018-09-19T23:03:35.326Z,12.53
2018-09-19T23:06:03.522Z,13.00
2018-09-19T23:08:31.707Z,12.33
2018-09-19T23:10:59.890Z,11.60
2018-09-19T23:13:28.078Z,9.97
2018-09-19T23:15:56.310Z,10.87
2018-09-19T23:18:24.499Z,11.60
2018-09-19T23:20:52.450Z,11.17
2018-09-19T23:23:20.628Z,10.87
2018-09-19T23:25:48.936Z,11.20
2018-09-19T23:28:17.111Z,11.33
2018-09-19T23:30:45.048Z,10.90
2018-09-19T23:33:13.223Z,12.83
2018-09-19T23:35:41.175Z,11.53
2018-09-19T23:38:09.367Z,14.90
2018-09-19T23:40:37.543Z,11.73
2018-09-19T23:43:05.722Z,12.37
2018-09-19T23:45:33.906Z,13.17
2018-09-19T23:48:02.091Z,11.77
2018-09-19T23:50:30.300Z,15.73
2018-09-19T23:52:58.516Z,12.70
2018-09-19T23:55:26.746Z,12.07
2018-09-19T23:57:54.796Z,11.93
